Aeroporto :
LOGIN :

Iscrizione | Disclaimer

   EN    FR    IT 

 










Sommario :    VFR   VFR Marginale   IFR   IFR Intensivo   IFR Molto Intensivo
Visibilità : 
Base nubi : 
>= 8 km
>= 3000ft
5 / 8 km
1000 / 3000 ft
1500m / 5 km
500 / 1000 ft
800 / 1500m
200 / 500 ft
< 800m
< 200 ft
Simboli :   Temporali  Nebbia  Neve Forte  Precipitazioni Forti  Vento > 20 kt
SIGMETs :   Varie  Temporali  Ghiacco  Turbolenza  Onda orograficha  Ceneri Vulcaniche






- Altitudine del aeroporto : 459 ft
- Codice IATA : CER


LFRC - Cherbourg / Maupertus

ULTIMO METAR :
  • 151230Z AUTO 01016KT 6000 -RA BKN010 OVC015 07/06 Q1001 TEMPO 4000 SHRA BKN008 BKN015CB BECMG 36015G25KT

METARs OBSOLETI :
  • 151200Z AUTO 36014KT 330V030 5000 -RA BR BKN009 BKN013 OVC018 07/06 Q1001 TEMPO SHRA BKN010 BKN015CB BECMG 36015G25KT
  • 151130Z AUTO 36014G26KT 330V030 9999 -DZ BKN014 BKN026 OVC043 07/05 Q1002
  • 151100Z AUTO 01018G28KT 9999 -RA BKN015 OVC034 07/05 Q1002 TEMPO 4000 SHRA BKN015CB
  • 151030Z AUTO 01016G28KT 330V030 9999 BKN015 OVC025 08/05 Q1002 TEMPO 4000 SHRA BKN015CB
  • 151000Z AUTO 36015KT 9999 BKN015 OVC023 07/05 Q1002 BECMG 01015G25KT

TAF AMD TAF LFRC
Valido dal 15 a 12 ore il 15 a 21 ore UTC


151212Z 1512/1521 36015G25KT 9999 BKN020
TEMPO 1512/1521 4000 SHRA BKN008 BKN015CB
BECMG 1518/1520 01020G35KT



MetMap, La meteo Aeronautica in un colpo d'occhio ! - Copyright ORBIFLY Dicembre 2007 - Disclaimer

ORBIFLY MET'MAP TEAM :

Programmazione e sviluppo : Alexandra Zaïnal
Concezione e sviluppo : Baudouin d'Aumeries
Co-Programmazione e sviluppo : Marc-Olivier Méhu
Supporto tecnico e logistico : Manuel Goepfert
Aiuto per la traduzione : Arnaldo La Scala

Contatto : metmap@orbifly.com




FONTI E CREDITI :

   NOAA